map of KDUH home
Great Circle Mapper logo
KDUH - Airport
Location
City:  Lambertville, Michigan, United States
Name:Toledo Suburban Airport
ICAO:KDUH
FAA:DUH

Details
Type:Airport (Airfield)
Use:Public/Civil
Latitude:4144'09"N (41.735875)
Longitude:8339'21"W (-83.655763)
Datum:WGS 1984
Elevation:669 ft (204 m)
Variation:6.89W (WMM2015 magnetic declination)
-0.04 annual change
Runways:1
Longest:4851 × 50 ft (1479 × 15 m), paved

Time
Time Zone:UTC-5 (DST-4)
Local Time:

Weather
METAR:KDUH 280315Z AUTO 00000KT 10SM CLR 21/19 A3005 RMK AO2 T02130187

Related Locations
Nearby:
Farthest:MGV: 11285 mi / 18161 km
Margaret River, WA, AU

Find:

   beyond  
but within

Other Information
Maps:
NOTAMs:
Links:
Sources:

  
flag of United States
flag of Michigan
  

Sectional Chart

Flight Planning
at skyvector.com

Satellite Image

Google Maps Satellite view

 

Copyright © 2004-2015 Karl L. Swartz. All rights reserved.
The Great Circle Mapper name and logo are trademarks of the Great Circle Mapper.
All other trademarks mentioned herein belong to their respective owners.
Please see credits for attibutions and further copyright information.

  Follow gcmap on Facebook Follow gcmap on Twitter Follow gcmap on Google+

hCard Microformat

Geo Microformat